LFBZ/BIQ METAR and TAF weather

Enter ICAO airport designator
Station Type Date Time Source
LFBZ METAR 2020/07/11 23:00 UTC NOAA

LFBZ 112300Z AUTO 19003KT CAVOK 19/16 Q1020 NOSIG


Station Type Date Time Source
LFBZ Decoded METAR 2020/07/11 23:00 UTC NOAA

Biarritz, France (LFBZ) 43-28N 001-32W 71M
Jul 11, 2020 - 07:00 PM EDT / 2020.07.11 2300 UTC
Wind: from the S (190 degrees) at 3 MPH (3 KT):0
Visibility: greater than 7 mile(s):0
Temperature: 66 F (19 C)
Dew Point: 60 F (16 C)
Relative Humidity: 82%
Pressure (altimeter): 30.12 in. Hg (1020 hPa)
ob: LFBZ 112300Z AUTO 19003KT CAVOK 19/16 Q1020 NOSIG
cycle: 23

Station Type Date Time Source
LFBZ TAF 2020/07/11 18:21 UTC NOAA

TAF LFBZ 111700Z 1118/1218 33010KT CAVOK
BECMG 1119/1121 27005KT PROB30
TEMPO 1204/1210 27015G25KT 4000 SHRA BKN014TCU
BECMG 1212/1214 35010KT

Example: see airport list